sensor_id;sensor_type;location;lat;lon;timestamp;temperature;humidity
8408;DHT22;4241;48.452;9.216;2022-12-07T00:01:20;3.60;99.90
8408;DHT22;4241;48.452;9.216;2022-12-07T00:03:52;3.60;99.90
8408;DHT22;4241;48.452;9.216;2022-12-07T00:06:19;3.60;99.90
8408;DHT22;4241;48.452;9.216;2022-12-07T00:08:47;3.60;99.90
8408;DHT22;4241;48.452;9.216;2022-12-07T00:11:16;3.60;99.90
8408;DHT22;4241;48.452;9.216;2022-12-07T00:13:43;3.50;99.90
8408;DHT22;4241;48.452;9.216;2022-12-07T00:16:12;3.60;99.90
8408;DHT22;4241;48.452;9.216;2022-12-07T00:18:39;3.60;99.90
8408;DHT22;4241;48.452;9.216;2022-12-07T00:21:09;3.60;99.90
8408;DHT22;4241;48.452;9.216;2022-12-07T00:23:37;3.60;99.90
8408;DHT22;4241;48.452;9.216;2022-12-07T00:26:05;3.60;99.90
8408;DHT22;4241;48.452;9.216;2022-12-07T00:28:32;3.60;99.90
8408;DHT22;4241;48.452;9.216;2022-12-07T00:31:04;3.50;99.90
8408;DHT22;4241;48.452;9.216;2022-12-07T00:33:32;3.60;99.90
8408;DHT22;4241;48.452;9.216;2022-12-07T00:36:00;3.60;99.90
8408;DHT22;4241;48.452;9.216;2022-12-07T00:38:30;3.60;99.90
8408;DHT22;4241;48.452;9.216;2022-12-07T00:40:58;3.60;99.90
8408;DHT22;4241;48.452;9.216;2022-12-07T00:43:25;3.50;99.90
8408;DHT22;4241;48.452;9.216;2022-12-07T00:45:52;3.60;99.90
8408;DHT22;4241;48.452;9.216;2022-12-07T00:48:20;3.50;99.90
8408;DHT22;4241;48.452;9.216;2022-12-07T00:50:47;3.50;99.90
8408;DHT22;4241;48.452;9.216;2022-12-07T00:53:14;3.50;99.90
8408;DHT22;4241;48.452;9.216;2022-12-07T00:55:42;3.50;99.90
8408;DHT22;4241;48.452;9.216;2022-12-07T00:58:09;3.50;99.90
8408;DHT22;4241;48.452;9.216;2022-12-07T01:00:38;3.50;99.90
8408;DHT22;4241;48.452;9.216;2022-12-07T01:03:06;3.50;99.90
8408;DHT22;4241;48.452;9.216;2022-12-07T01:05:33;3.50;99.90
8408;DHT22;4241;48.452;9.216;2022-12-07T01:08:00;3.50;99.90
8408;DHT22;4241;48.452;9.216;2022-12-07T01:10:27;3.50;99.90
8408;DHT22;4241;48.452;9.216;2022-12-07T01:12:57;3.40;99.90
8408;DHT22;4241;48.452;9.216;2022-12-07T01:15:25;3.40;99.90
8408;DHT22;4241;48.452;9.216;2022-12-07T01:17:51;3.50;99.90
8408;DHT22;4241;48.452;9.216;2022-12-07T01:20:20;3.40;99.90
8408;DHT22;4241;48.452;9.216;2022-12-07T01:22:46;3.40;99.90
8408;DHT22;4241;48.452;9.216;2022-12-07T01:25:13;3.40;99.90
8408;DHT22;4241;48.452;9.216;2022-12-07T01:27:40;3.40;99.90
8408;DHT22;4241;48.452;9.216;2022-12-07T01:30:10;3.40;99.90
8408;DHT22;4241;48.452;9.216;2022-12-07T01:32:37;3.40;99.90
8408;DHT22;4241;48.452;9.216;2022-12-07T01:35:05;3.40;99.90
8408;DHT22;4241;48.452;9.216;2022-12-07T01:37:34;3.40;99.90
8408;DHT22;4241;48.452;9.216;2022-12-07T01:40:01;3.40;99.90
8408;DHT22;4241;48.452;9.216;2022-12-07T01:42:28;3.30;99.90
8408;DHT22;4241;48.452;9.216;2022-12-07T01:48:14;3.30;99.90
8408;DHT22;4241;48.452;9.216;2022-12-07T01:50:44;3.30;99.90
8408;DHT22;4241;48.452;9.216;2022-12-07T01:53:12;3.20;99.90
8408;DHT22;4241;48.452;9.216;2022-12-07T01:55:42;3.20;99.90
8408;DHT22;4241;48.452;9.216;2022-12-07T01:58:11;3.20;99.90
8408;DHT22;4241;48.452;9.216;2022-12-07T02:00:39;3.20;99.90
8408;DHT22;4241;48.452;9.216;2022-12-07T02:03:11;3.20;99.90
8408;DHT22;4241;48.452;9.216;2022-12-07T02:05:43;3.20;99.90
8408;DHT22;4241;48.452;9.216;2022-12-07T02:08:11;3.30;99.90
8408;DHT22;4241;48.452;9.216;2022-12-07T02:10:39;3.30;99.90
8408;DHT22;4241;48.452;9.216;2022-12-07T02:13:10;3.30;99.90
8408;DHT22;4241;48.452;9.216;2022-12-07T02:15:46;3.30;99.90
8408;DHT22;4241;48.452;9.216;2022-12-07T02:18:19;3.40;99.90
8408;DHT22;4241;48.452;9.216;2022-12-07T02:20:52;3.30;99.90
8408;DHT22;4241;48.452;9.216;2022-12-07T02:23:36;3.30;99.90
8408;DHT22;4241;48.452;9.216;2022-12-07T02:26:28;3.30;99.90
8408;DHT22;4241;48.452;9.216;2022-12-07T02:29:15;3.30;99.90
8408;DHT22;4241;48.452;9.216;2022-12-07T02:31:48;3.30;99.90
8408;DHT22;4241;48.452;9.216;2022-12-07T02:34:21;3.20;99.90
8408;DHT22;4241;48.452;9.216;2022-12-07T02:36:54;3.40;99.90
8408;DHT22;4241;48.452;9.216;2022-12-07T02:39:28;3.40;99.90
8408;DHT22;4241;48.452;9.216;2022-12-07T02:42:00;3.30;99.90
8408;DHT22;4241;48.452;9.216;2022-12-07T02:44:31;3.20;99.90
8408;DHT22;4241;48.452;9.216;2022-12-07T02:47:02;3.20;99.90
8408;DHT22;4241;48.452;9.216;2022-12-07T02:49:30;3.30;99.90
8408;DHT22;4241;48.452;9.216;2022-12-07T02:51:57;3.20;99.90
8408;DHT22;4241;48.452;9.216;2022-12-07T02:54:25;3.20;99.90
8408;DHT22;4241;48.452;9.216;2022-12-07T02:56:57;3.20;99.90
8408;DHT22;4241;48.452;9.216;2022-12-07T02:59:38;3.20;99.90
8408;DHT22;4241;48.452;9.216;2022-12-07T03:02:17;3.20;99.90
8408;DHT22;4241;48.452;9.216;2022-12-07T03:04:54;3.80;99.90
8408;DHT22;4241;48.452;9.216;2022-12-07T03:07:32;3.20;99.90
8408;DHT22;4241;48.452;9.216;2022-12-07T03:10:06;3.20;99.90
8408;DHT22;4241;48.452;9.216;2022-12-07T03:12:42;3.20;99.90
8408;DHT22;4241;48.452;9.216;2022-12-07T03:15:15;3.20;99.90
8408;DHT22;4241;48.452;9.216;2022-12-07T03:17:45;3.20;99.90
8408;DHT22;4241;48.452;9.216;2022-12-07T03:20:14;3.20;99.90
8408;DHT22;4241;48.452;9.216;2022-12-07T03:22:43;3.20;99.90
8408;DHT22;4241;48.452;9.216;2022-12-07T03:25:13;3.20;99.90
8408;DHT22;4241;48.452;9.216;2022-12-07T03:27:44;3.20;99.90
8408;DHT22;4241;48.452;9.216;2022-12-07T03:30:18;3.10;99.90
8408;DHT22;4241;48.452;9.216;2022-12-07T03:32:50;3.20;99.90
8408;DHT22;4241;48.452;9.216;2022-12-07T03:35:22;3.30;99.90
8408;DHT22;4241;48.452;9.216;2022-12-07T03:37:54;3.10;99.90
8408;DHT22;4241;48.452;9.216;2022-12-07T03:40:26;2.90;99.90
8408;DHT22;4241;48.452;9.216;2022-12-07T03:42:55;3.00;99.90
8408;DHT22;4241;48.452;9.216;2022-12-07T03:45:32;3.00;99.90
8408;DHT22;4241;48.452;9.216;2022-12-07T03:48:07;3.10;99.90
8408;DHT22;4241;48.452;9.216;2022-12-07T03:50:40;3.00;99.90
8408;DHT22;4241;48.452;9.216;2022-12-07T03:53:12;3.00;99.90
8408;DHT22;4241;48.452;9.216;2022-12-07T03:55:43;2.90;99.90
8408;DHT22;4241;48.452;9.216;2022-12-07T03:58:13;2.80;99.90
8408;DHT22;4241;48.452;9.216;2022-12-07T04:00:43;2.80;99.90
8408;DHT22;4241;48.452;9.216;2022-12-07T04:03:11;2.80;99.90
8408;DHT22;4241;48.452;9.216;2022-12-07T04:05:38;2.90;99.90
8408;DHT22;4241;48.452;9.216;2022-12-07T04:08:06;2.90;99.90
8408;DHT22;4241;48.452;9.216;2022-12-07T04:10:32;2.90;99.90
8408;DHT22;4241;48.452;9.216;2022-12-07T04:12:59;2.80;99.90
8408;DHT22;4241;48.452;9.216;2022-12-07T04:15:26;2.90;99.90
8408;DHT22;4241;48.452;9.216;2022-12-07T04:17:55;2.90;99.90
8408;DHT22;4241;48.452;9.216;2022-12-07T04:20:21;2.90;99.90
8408;DHT22;4241;48.452;9.216;2022-12-07T04:22:48;2.90;99.90
8408;DHT22;4241;48.452;9.216;2022-12-07T04:25:15;2.90;99.90
8408;DHT22;4241;48.452;9.216;2022-12-07T04:27:42;3.00;99.90
8408;DHT22;4241;48.452;9.216;2022-12-07T04:30:09;3.00;99.90
8408;DHT22;4241;48.452;9.216;2022-12-07T04:32:36;3.00;99.90
8408;DHT22;4241;48.452;9.216;2022-12-07T04:35:05;3.10;99.90
8408;DHT22;4241;48.452;9.216;2022-12-07T04:37:32;3.10;99.90
8408;DHT22;4241;48.452;9.216;2022-12-07T04:39:59;3.10;99.90
8408;DHT22;4241;48.452;9.216;2022-12-07T04:42:26;3.10;99.90
8408;DHT22;4241;48.452;9.216;2022-12-07T04:44:52;3.10;99.90
8408;DHT22;4241;48.452;9.216;2022-12-07T04:47:20;3.10;99.90
8408;DHT22;4241;48.452;9.216;2022-12-07T04:49:47;3.10;99.90
8408;DHT22;4241;48.452;9.216;2022-12-07T04:52:15;3.10;99.90
8408;DHT22;4241;48.452;9.216;2022-12-07T04:54:42;3.00;99.90
8408;DHT22;4241;48.452;9.216;2022-12-07T04:57:09;3.00;99.90
8408;DHT22;4241;48.452;9.216;2022-12-07T04:59:36;3.10;99.90
8408;DHT22;4241;48.452;9.216;2022-12-07T05:02:03;3.10;99.90
8408;DHT22;4241;48.452;9.216;2022-12-07T05:04:29;3.20;99.90
8408;DHT22;4241;48.452;9.216;2022-12-07T05:06:56;3.10;99.90
8408;DHT22;4241;48.452;9.216;2022-12-07T05:09:24;3.20;99.90
8408;DHT22;4241;48.452;9.216;2022-12-07T05:11:51;3.10;99.90
8408;DHT22;4241;48.452;9.216;2022-12-07T05:14:19;3.10;99.90
8408;DHT22;4241;48.452;9.216;2022-12-07T05:16:48;3.10;99.90
8408;DHT22;4241;48.452;9.216;2022-12-07T05:19:15;3.10;99.90
8408;DHT22;4241;48.452;9.216;2022-12-07T05:21:42;3.10;99.90
8408;DHT22;4241;48.452;9.216;2022-12-07T05:24:11;3.00;99.90
8408;DHT22;4241;48.452;9.216;2022-12-07T05:26:40;2.90;99.90
8408;DHT22;4241;48.452;9.216;2022-12-07T05:29:07;2.90;99.90
8408;DHT22;4241;48.452;9.216;2022-12-07T05:31:34;2.90;99.90
8408;DHT22;4241;48.452;9.216;2022-12-07T05:34:01;2.80;99.90
8408;DHT22;4241;48.452;9.216;2022-12-07T05:36:28;2.80;99.90
8408;DHT22;4241;48.452;9.216;2022-12-07T05:38:56;2.80;99.90
8408;DHT22;4241;48.452;9.216;2022-12-07T05:41:23;2.80;99.90
8408;DHT22;4241;48.452;9.216;2022-12-07T05:44:09;2.80;99.90
8408;DHT22;4241;48.452;9.216;2022-12-07T05:46:35;2.80;99.90
8408;DHT22;4241;48.452;9.216;2022-12-07T05:49:02;2.70;99.90
8408;DHT22;4241;48.452;9.216;2022-12-07T05:51:29;2.60;99.90
8408;DHT22;4241;48.452;9.216;2022-12-07T05:53:56;2.60;99.90
8408;DHT22;4241;48.452;9.216;2022-12-07T05:56:23;2.60;99.90
8408;DHT22;4241;48.452;9.216;2022-12-07T05:58:50;2.80;99.90
8408;DHT22;4241;48.452;9.216;2022-12-07T06:01:47;2.60;99.90
8408;DHT22;4241;48.452;9.216;2022-12-07T06:04:13;2.50;99.90
8408;DHT22;4241;48.452;9.216;2022-12-07T06:06:40;2.30;99.90
8408;DHT22;4241;48.452;9.216;2022-12-07T06:09:07;2.40;99.90
8408;DHT22;4241;48.452;9.216;2022-12-07T06:11:34;2.20;99.90
8408;DHT22;4241;48.452;9.216;2022-12-07T06:14:19;2.20;99.90
8408;DHT22;4241;48.452;9.216;2022-12-07T06:16:47;2.10;99.90
8408;DHT22;4241;48.452;9.216;2022-12-07T06:19:13;2.10;99.90
8408;DHT22;4241;48.452;9.216;2022-12-07T06:21:41;1.90;99.90
8408;DHT22;4241;48.452;9.216;2022-12-07T06:24:10;2.00;99.90
8408;DHT22;4241;48.452;9.216;2022-12-07T06:26:37;1.90;99.90
8408;DHT22;4241;48.452;9.216;2022-12-07T06:29:04;1.90;99.90
8408;DHT22;4241;48.452;9.216;2022-12-07T06:31:31;1.80;99.90
8408;DHT22;4241;48.452;9.216;2022-12-07T06:34:00;1.70;99.90
8408;DHT22;4241;48.452;9.216;2022-12-07T06:36:27;1.70;99.90
8408;DHT22;4241;48.452;9.216;2022-12-07T06:38:55;1.80;99.90
8408;DHT22;4241;48.452;9.216;2022-12-07T06:41:22;1.70;99.90
8408;DHT22;4241;48.452;9.216;2022-12-07T06:43:49;1.60;99.90
8408;DHT22;4241;48.452;9.216;2022-12-07T06:46:16;1.70;99.90
8408;DHT22;4241;48.452;9.216;2022-12-07T06:48:43;1.50;99.90
8408;DHT22;4241;48.452;9.216;2022-12-07T06:51:11;1.60;99.90
8408;DHT22;4241;48.452;9.216;2022-12-07T06:53:38;1.60;99.90
8408;DHT22;4241;48.452;9.216;2022-12-07T06:56:05;1.70;99.90
8408;DHT22;4241;48.452;9.216;2022-12-07T06:58:32;1.50;99.90
8408;DHT22;4241;48.452;9.216;2022-12-07T07:00:59;1.60;99.90
8408;DHT22;4241;48.452;9.216;2022-12-07T07:03:26;1.50;99.90
8408;DHT22;4241;48.452;9.216;2022-12-07T07:05:53;1.50;99.90
8408;DHT22;4241;48.452;9.216;2022-12-07T07:08:21;1.50;99.90
8408;DHT22;4241;48.452;9.216;2022-12-07T07:10:47;1.40;99.90
8408;DHT22;4241;48.452;9.216;2022-12-07T07:13:14;1.40;99.90
8408;DHT22;4241;48.452;9.216;2022-12-07T07:15:41;1.50;99.90
8408;DHT22;4241;48.452;9.216;2022-12-07T07:18:08;1.50;99.90
8408;DHT22;4241;48.452;9.216;2022-12-07T07:20:35;1.40;99.90
8408;DHT22;4241;48.452;9.216;2022-12-07T07:23:02;1.50;99.90
8408;DHT22;4241;48.452;9.216;2022-12-07T07:25:30;1.50;99.90
8408;DHT22;4241;48.452;9.216;2022-12-07T07:27:57;1.60;99.90
8408;DHT22;4241;48.452;9.216;2022-12-07T07:30:24;1.40;99.90
8408;DHT22;4241;48.452;9.216;2022-12-07T07:32:51;1.50;99.90
8408;DHT22;4241;48.452;9.216;2022-12-07T07:35:17;1.50;99.90
8408;DHT22;4241;48.452;9.216;2022-12-07T07:37:44;1.60;99.90
8408;DHT22;4241;48.452;9.216;2022-12-07T07:40:11;1.60;99.90
8408;DHT22;4241;48.452;9.216;2022-12-07T07:42:39;1.70;99.90
8408;DHT22;4241;48.452;9.216;2022-12-07T07:45:07;1.70;99.90
8408;DHT22;4241;48.452;9.216;2022-12-07T07:47:34;1.70;99.90
8408;DHT22;4241;48.452;9.216;2022-12-07T07:50:01;1.70;99.90
8408;DHT22;4241;48.452;9.216;2022-12-07T07:52:28;1.70;99.90
8408;DHT22;4241;48.452;9.216;2022-12-07T07:54:54;1.80;99.90
8408;DHT22;4241;48.452;9.216;2022-12-07T07:57:21;1.90;99.90
8408;DHT22;4241;48.452;9.216;2022-12-07T07:59:49;1.90;99.90
8408;DHT22;4241;48.452;9.216;2022-12-07T08:02:18;1.90;99.90
8408;DHT22;4241;48.452;9.216;2022-12-07T08:04:46;1.90;99.90
8408;DHT22;4241;48.452;9.216;2022-12-07T08:07:13;1.90;99.90
8408;DHT22;4241;48.452;9.216;2022-12-07T08:09:41;2.00;99.90
8408;DHT22;4241;48.452;9.216;2022-12-07T08:12:08;2.00;99.90
8408;DHT22;4241;48.452;9.216;2022-12-07T08:17:03;2.10;99.90
8408;DHT22;4241;48.452;9.216;2022-12-07T08:19:30;2.10;99.90
8408;DHT22;4241;48.452;9.216;2022-12-07T08:21:57;2.10;99.90
8408;DHT22;4241;48.452;9.216;2022-12-07T08:24:24;2.20;99.90
8408;DHT22;4241;48.452;9.216;2022-12-07T08:26:51;2.20;99.90
8408;DHT22;4241;48.452;9.216;2022-12-07T08:29:18;2.30;99.90
8408;DHT22;4241;48.452;9.216;2022-12-07T08:31:45;2.30;99.90
8408;DHT22;4241;48.452;9.216;2022-12-07T08:34:13;2.50;99.90
8408;DHT22;4241;48.452;9.216;2022-12-07T08:36:40;2.40;99.90
8408;DHT22;4241;48.452;9.216;2022-12-07T08:39:07;2.40;99.90
8408;DHT22;4241;48.452;9.216;2022-12-07T08:41:34;2.40;99.90
8408;DHT22;4241;48.452;9.216;2022-12-07T08:44:01;2.40;99.90
8408;DHT22;4241;48.452;9.216;2022-12-07T08:46:31;2.50;99.90
8408;DHT22;4241;48.452;9.216;2022-12-07T08:49:04;2.60;99.90
8408;DHT22;4241;48.452;9.216;2022-12-07T08:51:33;2.60;99.90
8408;DHT22;4241;48.452;9.216;2022-12-07T08:54:02;2.70;99.90
8408;DHT22;4241;48.452;9.216;2022-12-07T08:56:30;2.70;99.90
8408;DHT22;4241;48.452;9.216;2022-12-07T08:58:58;2.80;99.90
8408;DHT22;4241;48.452;9.216;2022-12-07T09:01:25;2.90;99.90
8408;DHT22;4241;48.452;9.216;2022-12-07T09:03:52;3.00;99.90
8408;DHT22;4241;48.452;9.216;2022-12-07T09:06:26;3.10;99.90
8408;DHT22;4241;48.452;9.216;2022-12-07T09:08:57;3.10;99.90
8408;DHT22;4241;48.452;9.216;2022-12-07T09:11:25;3.10;99.90
8408;DHT22;4241;48.452;9.216;2022-12-07T09:13:52;3.20;99.90
8408;DHT22;4241;48.452;9.216;2022-12-07T09:16:19;3.20;99.90
8408;DHT22;4241;48.452;9.216;2022-12-07T09:18:45;3.30;99.90
8408;DHT22;4241;48.452;9.216;2022-12-07T09:21:12;3.30;99.90
8408;DHT22;4241;48.452;9.216;2022-12-07T09:23:39;3.50;99.90
8408;DHT22;4241;48.452;9.216;2022-12-07T09:26:09;3.60;99.90
8408;DHT22;4241;48.452;9.216;2022-12-07T09:28:36;3.60;99.90
8408;DHT22;4241;48.452;9.216;2022-12-07T09:31:04;3.70;99.90
8408;DHT22;4241;48.452;9.216;2022-12-07T09:33:31;3.70;99.90
8408;DHT22;4241;48.452;9.216;2022-12-07T09:35:58;3.80;99.90
8408;DHT22;4241;48.452;9.216;2022-12-07T09:38:24;3.90;99.90
8408;DHT22;4241;48.452;9.216;2022-12-07T09:40:51;3.90;99.90
8408;DHT22;4241;48.452;9.216;2022-12-07T09:43:22;3.90;99.90
8408;DHT22;4241;48.452;9.216;2022-12-07T09:45:51;3.90;99.90
8408;DHT22;4241;48.452;9.216;2022-12-07T09:48:20;4.00;99.90
8408;DHT22;4241;48.452;9.216;2022-12-07T09:50:48;3.90;99.90
8408;DHT22;4241;48.452;9.216;2022-12-07T09:53:20;4.00;99.90
8408;DHT22;4241;48.452;9.216;2022-12-07T09:55:49;4.10;99.90
8408;DHT22;4241;48.452;9.216;2022-12-07T09:58:22;4.10;99.90
8408;DHT22;4241;48.452;9.216;2022-12-07T10:00:51;4.20;99.90
8408;DHT22;4241;48.452;9.216;2022-12-07T10:03:20;4.10;99.90
8408;DHT22;4241;48.452;9.216;2022-12-07T10:05:49;4.10;99.90
8408;DHT22;4241;48.452;9.216;2022-12-07T10:08:17;4.00;99.90
8408;DHT22;4241;48.452;9.216;2022-12-07T10:10:45;4.00;99.90
8408;DHT22;4241;48.452;9.216;2022-12-07T10:13:13;3.90;99.90
8408;DHT22;4241;48.452;9.216;2022-12-07T10:15:45;4.00;99.90
8408;DHT22;4241;48.452;9.216;2022-12-07T10:18:21;4.10;99.90
8408;DHT22;4241;48.452;9.216;2022-12-07T10:21:05;4.10;99.90
8408;DHT22;4241;48.452;9.216;2022-12-07T10:23:33;4.10;99.90
8408;DHT22;4241;48.452;9.216;2022-12-07T10:26:19;4.10;99.90
8408;DHT22;4241;48.452;9.216;2022-12-07T10:31:18;4.20;99.90
8408;DHT22;4241;48.452;9.216;2022-12-07T10:33:50;4.40;99.90
8408;DHT22;4241;48.452;9.216;2022-12-07T10:36:20;4.30;99.90
8408;DHT22;4241;48.452;9.216;2022-12-07T10:38:51;4.30;99.90
8408;DHT22;4241;48.452;9.216;2022-12-07T10:41:17;4.40;99.90
8408;DHT22;4241;48.452;9.216;2022-12-07T10:43:52;4.50;99.90
8408;DHT22;4241;48.452;9.216;2022-12-07T10:46:37;4.40;99.90
8408;DHT22;4241;48.452;9.216;2022-12-07T10:49:24;4.40;99.90
8408;DHT22;4241;48.452;9.216;2022-12-07T10:51:59;4.20;99.90
8408;DHT22;4241;48.452;9.216;2022-12-07T10:54:37;4.10;99.90
8408;DHT22;4241;48.452;9.216;2022-12-07T10:57:28;4.20;99.90
8408;DHT22;4241;48.452;9.216;2022-12-07T11:00:05;4.20;99.90
8408;DHT22;4241;48.452;9.216;2022-12-07T11:05:38;4.40;99.90
8408;DHT22;4241;48.452;9.216;2022-12-07T11:08:17;4.60;99.90
8408;DHT22;4241;48.452;9.216;2022-12-07T11:10:49;4.60;99.90
8408;DHT22;4241;48.452;9.216;2022-12-07T11:13:28;4.60;99.90
8408;DHT22;4241;48.452;9.216;2022-12-07T11:16:05;4.60;99.90
8408;DHT22;4241;48.452;9.216;2022-12-07T11:18:42;4.70;99.90
8408;DHT22;4241;48.452;9.216;2022-12-07T11:21:17;4.70;99.90
8408;DHT22;4241;48.452;9.216;2022-12-07T11:23:53;4.60;99.90
8408;DHT22;4241;48.452;9.216;2022-12-07T11:26:46;4.60;99.90
8408;DHT22;4241;48.452;9.216;2022-12-07T11:29:38;4.60;99.90
8408;DHT22;4241;48.452;9.216;2022-12-07T11:32:14;4.60;99.90
8408;DHT22;4241;48.452;9.216;2022-12-07T11:34:55;4.60;99.90
8408;DHT22;4241;48.452;9.216;2022-12-07T11:37:28;4.70;99.90
8408;DHT22;4241;48.452;9.216;2022-12-07T11:40:00;4.70;99.90
8408;DHT22;4241;48.452;9.216;2022-12-07T11:42:31;4.60;99.90
8408;DHT22;4241;48.452;9.216;2022-12-07T11:45:04;4.70;99.90
8408;DHT22;4241;48.452;9.216;2022-12-07T11:47:41;4.70;99.90
8408;DHT22;4241;48.452;9.216;2022-12-07T11:50:25;4.80;99.90
8408;DHT22;4241;48.452;9.216;2022-12-07T11:52:57;5.00;99.90
8408;DHT22;4241;48.452;9.216;2022-12-07T11:55:29;4.70;99.90
8408;DHT22;4241;48.452;9.216;2022-12-07T11:58:03;4.80;99.90
8408;DHT22;4241;48.452;9.216;2022-12-07T12:00:30;4.80;99.90
8408;DHT22;4241;48.452;9.216;2022-12-07T12:03:01;4.80;99.90
8408;DHT22;4241;48.452;9.216;2022-12-07T12:05:31;4.80;99.90
8408;DHT22;4241;48.452;9.216;2022-12-07T12:08:03;4.90;99.90
8408;DHT22;4241;48.452;9.216;2022-12-07T12:10:45;4.90;99.90
8408;DHT22;4241;48.452;9.216;2022-12-07T12:13:38;4.80;99.90
8408;DHT22;4241;48.452;9.216;2022-12-07T12:16:29;4.80;99.90
8408;DHT22;4241;48.452;9.216;2022-12-07T12:19:15;4.80;99.90
8408;DHT22;4241;48.452;9.216;2022-12-07T12:21:49;4.80;99.90
8408;DHT22;4241;48.452;9.216;2022-12-07T12:24:24;4.80;99.90
8408;DHT22;4241;48.452;9.216;2022-12-07T12:26:55;4.80;99.90
8408;DHT22;4241;48.452;9.216;2022-12-07T12:29:31;4.80;99.90
8408;DHT22;4241;48.452;9.216;2022-12-07T12:32:11;4.90;99.90
8408;DHT22;4241;48.452;9.216;2022-12-07T12:34:41;2.70;99.90
8408;DHT22;4241;48.452;9.216;2022-12-07T12:37:45;4.90;99.90
8408;DHT22;4241;48.452;9.216;2022-12-07T12:40:40;5.00;99.90
8408;DHT22;4241;48.452;9.216;2022-12-07T12:43:41;5.00;99.90
8408;DHT22;4241;48.452;9.216;2022-12-07T12:49:34;5.20;99.90
8408;DHT22;4241;48.452;9.216;2022-12-07T12:55:26;5.20;99.90
8408;DHT22;4241;48.452;9.216;2022-12-07T12:58:31;5.20;99.90
8408;DHT22;4241;48.452;9.216;2022-12-07T13:01:38;5.20;99.90
8408;DHT22;4241;48.452;9.216;2022-12-07T13:04:18;5.30;99.90
8408;DHT22;4241;48.452;9.216;2022-12-07T13:06:47;5.40;99.90
8408;DHT22;4241;48.452;9.216;2022-12-07T13:09:21;5.20;99.90
8408;DHT22;4241;48.452;9.216;2022-12-07T13:11:56;5.20;99.90
8408;DHT22;4241;48.452;9.216;2022-12-07T13:14:57;5.10;99.90
8408;DHT22;4241;48.452;9.216;2022-12-07T13:17:56;5.20;99.90
8408;DHT22;4241;48.452;9.216;2022-12-07T13:20:49;5.20;99.90
8408;DHT22;4241;48.452;9.216;2022-12-07T13:23:39;5.20;99.90
8408;DHT22;4241;48.452;9.216;2022-12-07T13:26:21;5.20;99.90
8408;DHT22;4241;48.452;9.216;2022-12-07T13:28:52;5.10;99.90
8408;DHT22;4241;48.452;9.216;2022-12-07T13:31:33;5.10;99.90
8408;DHT22;4241;48.452;9.216;2022-12-07T13:34:01;5.00;99.90
8408;DHT22;4241;48.452;9.216;2022-12-07T13:36:30;5.10;99.90
8408;DHT22;4241;48.452;9.216;2022-12-07T13:39:11;5.10;99.90
8408;DHT22;4241;48.452;9.216;2022-12-07T13:41:43;5.00;99.90
8408;DHT22;4241;48.452;9.216;2022-12-07T13:44:14;5.10;99.90
8408;DHT22;4241;48.452;9.216;2022-12-07T13:46:47;5.10;99.90
8408;DHT22;4241;48.452;9.216;2022-12-07T13:49:18;5.10;99.90
8408;DHT22;4241;48.452;9.216;2022-12-07T13:51:47;5.10;99.90
8408;DHT22;4241;48.452;9.216;2022-12-07T13:54:14;5.10;99.90
8408;DHT22;4241;48.452;9.216;2022-12-07T13:56:41;5.00;99.90
8408;DHT22;4241;48.452;9.216;2022-12-07T13:59:14;5.00;99.90
8408;DHT22;4241;48.452;9.216;2022-12-07T14:01:41;5.00;99.90
8408;DHT22;4241;48.452;9.216;2022-12-07T14:04:25;5.00;99.90
8408;DHT22;4241;48.452;9.216;2022-12-07T14:06:54;5.00;99.90
8408;DHT22;4241;48.452;9.216;2022-12-07T14:09:22;4.90;99.90
8408;DHT22;4241;48.452;9.216;2022-12-07T14:11:51;5.00;99.90
8408;DHT22;4241;48.452;9.216;2022-12-07T14:14:22;4.90;99.90
8408;DHT22;4241;48.452;9.216;2022-12-07T14:17:08;4.90;99.90
8408;DHT22;4241;48.452;9.216;2022-12-07T14:19:44;4.90;99.90
8408;DHT22;4241;48.452;9.216;2022-12-07T14:22:24;4.90;99.90
8408;DHT22;4241;48.452;9.216;2022-12-07T14:24:57;4.80;99.90
8408;DHT22;4241;48.452;9.216;2022-12-07T14:27:29;4.90;99.90
8408;DHT22;4241;48.452;9.216;2022-12-07T14:30:00;4.90;99.90
8408;DHT22;4241;48.452;9.216;2022-12-07T14:32:28;4.90;99.90
8408;DHT22;4241;48.452;9.216;2022-12-07T14:34:58;4.80;99.90
8408;DHT22;4241;48.452;9.216;2022-12-07T14:37:26;4.80;99.90
8408;DHT22;4241;48.452;9.216;2022-12-07T14:39:53;4.70;99.90
8408;DHT22;4241;48.452;9.216;2022-12-07T14:42:20;4.80;99.90
8408;DHT22;4241;48.452;9.216;2022-12-07T14:44:50;4.70;99.90
8408;DHT22;4241;48.452;9.216;2022-12-07T14:47:18;4.70;99.90
8408;DHT22;4241;48.452;9.216;2022-12-07T14:49:45;4.70;99.90
8408;DHT22;4241;48.452;9.216;2022-12-07T14:52:15;4.70;99.90
8408;DHT22;4241;48.452;9.216;2022-12-07T14:54:42;4.60;99.90
8408;DHT22;4241;48.452;9.216;2022-12-07T14:57:09;4.70;99.90
8408;DHT22;4241;48.452;9.216;2022-12-07T14:59:37;4.70;99.90
8408;DHT22;4241;48.452;9.216;2022-12-07T15:02:04;4.70;99.90
8408;DHT22;4241;48.452;9.216;2022-12-07T15:04:32;4.70;99.90
8408;DHT22;4241;48.452;9.216;2022-12-07T15:07:00;4.50;99.90
8408;DHT22;4241;48.452;9.216;2022-12-07T15:09:28;4.50;99.90
8408;DHT22;4241;48.452;9.216;2022-12-07T15:11:54;4.40;99.90
8408;DHT22;4241;48.452;9.216;2022-12-07T15:14:21;4.40;99.90
8408;DHT22;4241;48.452;9.216;2022-12-07T15:16:48;4.40;99.90
8408;DHT22;4241;48.452;9.216;2022-12-07T15:19:17;4.40;99.90
8408;DHT22;4241;48.452;9.216;2022-12-07T15:21:45;4.40;99.90
8408;DHT22;4241;48.452;9.216;2022-12-07T15:24:12;5.50;99.90
8408;DHT22;4241;48.452;9.216;2022-12-07T15:26:40;4.40;99.90
8408;DHT22;4241;48.452;9.216;2022-12-07T15:29:08;4.50;99.90
8408;DHT22;4241;48.452;9.216;2022-12-07T15:31:35;4.50;99.90
8408;DHT22;4241;48.452;9.216;2022-12-07T15:34:02;4.50;99.90
8408;DHT22;4241;48.452;9.216;2022-12-07T15:36:33;4.50;99.90
8408;DHT22;4241;48.452;9.216;2022-12-07T15:39:01;4.40;99.90
8408;DHT22;4241;48.452;9.216;2022-12-07T15:41:28;4.30;99.90
8408;DHT22;4241;48.452;9.216;2022-12-07T15:43:55;4.40;99.90
8408;DHT22;4241;48.452;9.216;2022-12-07T15:46:40;4.40;99.90
8408;DHT22;4241;48.452;9.216;2022-12-07T15:49:11;4.30;99.90
8408;DHT22;4241;48.452;9.216;2022-12-07T15:51:39;4.40;99.90
8408;DHT22;4241;48.452;9.216;2022-12-07T15:54:07;4.30;99.90
8408;DHT22;4241;48.452;9.216;2022-12-07T15:59:02;4.30;99.90
8408;DHT22;4241;48.452;9.216;2022-12-07T16:01:29;4.10;99.90
8408;DHT22;4241;48.452;9.216;2022-12-07T16:03:57;4.00;99.90
8408;DHT22;4241;48.452;9.216;2022-12-07T16:06:24;4.00;99.90
8408;DHT22;4241;48.452;9.216;2022-12-07T16:08:51;4.20;99.90
8408;DHT22;4241;48.452;9.216;2022-12-07T16:11:19;4.10;99.90
8408;DHT22;4241;48.452;9.216;2022-12-07T16:13:46;4.10;99.90
8408;DHT22;4241;48.452;9.216;2022-12-07T16:16:15;4.10;99.90
8408;DHT22;4241;48.452;9.216;2022-12-07T16:18:43;4.10;99.90
8408;DHT22;4241;48.452;9.216;2022-12-07T16:21:11;4.30;99.90
8408;DHT22;4241;48.452;9.216;2022-12-07T16:23:38;4.20;99.90
8408;DHT22;4241;48.452;9.216;2022-12-07T16:26:06;4.20;99.90
8408;DHT22;4241;48.452;9.216;2022-12-07T16:28:35;4.20;99.90
8408;DHT22;4241;48.452;9.216;2022-12-07T16:31:03;4.30;99.90
8408;DHT22;4241;48.452;9.216;2022-12-07T16:33:30;4.30;99.90
8408;DHT22;4241;48.452;9.216;2022-12-07T16:35:58;4.30;99.90
8408;DHT22;4241;48.452;9.216;2022-12-07T16:38:25;4.10;99.90
8408;DHT22;4241;48.452;9.216;2022-12-07T16:40:52;4.30;99.90
8408;DHT22;4241;48.452;9.216;2022-12-07T16:43:19;4.30;99.90
8408;DHT22;4241;48.452;9.216;2022-12-07T16:45:48;4.30;99.90
8408;DHT22;4241;48.452;9.216;2022-12-07T16:48:15;4.20;99.90
8408;DHT22;4241;48.452;9.216;2022-12-07T16:50:43;4.20;99.90
8408;DHT22;4241;48.452;9.216;2022-12-07T16:53:11;4.20;99.90
8408;DHT22;4241;48.452;9.216;2022-12-07T16:55:39;4.00;99.90
8408;DHT22;4241;48.452;9.216;2022-12-07T16:58:07;4.00;99.90
8408;DHT22;4241;48.452;9.216;2022-12-07T17:00:34;4.10;99.90